LTAD/ANK METAR and TAF weather

Enter ICAO airport designator
Station Type Date Time Source
LTAD METAR 2020/07/02 16:50 UTC NOAA

LTAD 021650Z 04006KT 010V080 9999 FEW040 30/07 Q1011 NOSIG RMK RWY29 03004KT 360V080


Station Type Date Time Source
LTAD Decoded METAR 2020/07/02 16:50 UTC NOAA

Ankara / Etimesgut, Turkey (LTAD) 39-57N 032-41E 806M
Jul 02, 2020 - 12:50 PM EDT / 2020.07.02 1650 UTC
Wind: from the NE (040 degrees) at 7 MPH (6 KT) (direction variable):0
Visibility: greater than 7 mile(s):0
Sky conditions: mostly clear
Temperature: 86 F (30 C)
Dew Point: 44 F (7 C)
Relative Humidity: 23%
Pressure (altimeter): 29.85 in. Hg (1011 hPa)
ob: LTAD 021650Z 04006KT 010V080 9999 FEW040 30/07 Q1011 NOSIG RMK RWY29 03004KT 360V080
cycle: 17

Station Type Date Time Source
LTAD TAF UTC NOAA

Error!

Example: see airport list